Time;durP1;ratioP1;P1;durP2;ratioP2;P2;SDS_P1;SDS_P2;PMS_P1;PMS_P2;Temp;Humidity;BMP_temperature;BMP_pressure;BME280_temperature;BME280_humidity;BME280_pressure;Samples;Min_cycle;Max_cycle;Signal;HPM_P1;HPM_P2
2022/04/18 00:02:09;;;;;;;4.93;4.53;;;5.70;77.30;;;;;;5069734;28;21043;-73
2022/04/18 00:04:35;;;;;;;7.20;4.50;;;5.60;77.80;;;;;;5071020;28;20885;-73
2022/04/18 00:07:03;;;;;;;6.30;4.60;;;5.50;78.30;;;;;;5070944;28;20498;-74
2022/04/18 00:09:33;;;;;;;4.73;4.33;;;5.50;78.40;;;;;;5059398;28;20469;-73
2022/04/18 00:12:00;;;;;;;5.50;4.47;;;5.40;78.30;;;;;;5073617;28;20488;-73
2022/04/18 00:14:27;;;;;;;5.03;4.27;;;5.40;78.50;;;;;;5072206;28;20704;-73
2022/04/18 00:16:56;;;;;;;6.00;4.37;;;5.40;78.70;;;;;;5067206;28;20481;-75
2022/04/18 00:19:24;;;;;;;8.37;5.90;;;5.40;78.70;;;;;;5066257;28;20490;-74
2022/04/18 00:21:52;;;;;;;5.03;4.50;;;5.40;78.60;;;;;;5059873;28;20491;-75
2022/04/18 00:24:20;;;;;;;6.77;5.03;;;5.50;78.50;;;;;;5073005;28;20483;-73
2022/04/18 00:26:49;;;;;;;5.73;5.00;;;5.50;78.30;;;;;;5077373;28;20852;-74
2022/04/18 00:29:16;;;;;;;12.70;5.80;;;5.50;78.00;;;;;;5069486;28;20510;-72
2022/04/18 00:31:42;;;;;;;6.60;5.03;;;5.60;77.90;;;;;;5066282;28;20848;-73
2022/04/18 00:34:09;;;;;;;8.73;6.27;;;5.60;77.80;;;;;;5070723;28;20472;-73
2022/04/18 00:36:36;;;;;;;8.03;5.57;;;5.70;77.50;;;;;;5063742;28;20474;-73
2022/04/18 00:39:04;;;;;;;6.93;5.60;;;5.70;77.30;;;;;;5071777;28;20741;-72
2022/04/18 00:41:30;;;;;;;5.50;5.00;;;5.70;77.10;;;;;;5075721;28;20472;-72
2022/04/18 00:43:58;;;;;;;5.80;4.70;;;5.80;77.00;;;;;;5075191;28;20483;-73
2022/04/18 00:46:25;;;;;;;8.27;5.00;;;5.80;76.90;;;;;;5067524;28;20501;-73
2022/04/18 00:48:52;;;;;;;7.30;4.23;;;5.80;76.70;;;;;;5067846;28;20575;-74
2022/04/18 00:51:22;;;;;;;5.30;4.30;;;5.80;76.60;;;;;;5064568;28;21100;-74
2022/04/18 00:53:53;;;;;;;5.30;4.80;;;5.80;76.60;;;;;;5065041;28;20485;-75
2022/04/18 00:56:21;;;;;;;5.33;4.80;;;5.80;76.70;;;;;;5068296;28;21131;-74
2022/04/18 00:58:48;;;;;;;3.77;3.47;;;5.80;77.10;;;;;;5068678;28;20525;-75
2022/04/18 01:01:18;;;;;;;4.00;3.60;;;5.70;76.20;;;;;;5067275;28;20480;-75
2022/04/18 01:03:45;;;;;;;4.90;3.90;;;5.40;76.40;;;;;;5070849;28;20488;-74
2022/04/18 01:06:14;;;;;;;5.20;4.70;;;5.20;76.90;;;;;;5066895;28;21280;-74
2022/04/18 01:08:43;;;;;;;4.13;3.70;;;5.00;77.30;;;;;;5073679;28;20930;-76
2022/04/18 01:11:10;;;;;;;5.63;4.53;;;5.00;77.20;;;;;;5055345;28;20477;-75
2022/04/18 01:13:41;;;;;;;5.03;4.57;;;5.00;77.50;;;;;;5062092;28;20496;-74
2022/04/18 01:16:08;;;;;;;4.60;4.20;;;5.00;77.60;;;;;;5038347;28;20484;-74
2022/04/18 01:18:37;;;;;;;6.90;5.00;;;4.90;78.00;;;;;;5066403;28;20534;-74
2022/04/18 01:21:05;;;;;;;4.97;4.53;;;4.90;77.70;;;;;;5065051;28;20482;-74
2022/04/18 01:23:32;;;;;;;5.67;4.20;;;5.00;77.50;;;;;;5061207;28;20909;-74
2022/04/18 01:29:01;;;;;;;6.67;4.40;;;5.10;77.50;;;;;;5054455;28;20886;-74
2022/04/18 01:31:31;;;;;;;4.50;4.10;;;5.10;77.30;;;;;;5054492;28;21058;-74
2022/04/18 01:33:59;;;;;;;6.00;4.90;;;5.10;76.90;;;;;;5062698;28;20469;-74
2022/04/18 01:36:28;;;;;;;7.13;4.00;;;5.10;76.80;;;;;;5058342;28;20469;-74
2022/04/18 01:38:55;;;;;;;4.63;4.13;;;5.10;77.50;;;;;;5057798;28;20483;-74
2022/04/18 01:41:23;;;;;;;5.10;4.70;;;5.10;77.60;;;;;;5057423;28;20817;-74
2022/04/18 01:43:51;;;;;;;11.93;4.50;;;5.10;77.80;;;;;;5070680;28;20499;-74
2022/04/18 01:46:19;;;;;;;6.97;5.27;;;5.10;78.20;;;;;;5060963;28;20487;-75
2022/04/18 01:48:47;;;;;;;5.40;4.60;;;5.10;78.20;;;;;;5066169;28;20551;-75
2022/04/18 01:51:13;;;;;;;6.83;4.40;;;5.10;78.30;;;;;;5059263;28;20496;-74
2022/04/18 01:53:42;;;;;;;12.10;4.83;;;5.10;78.00;;;;;;5055355;28;20485;-72
2022/04/18 01:56:09;;;;;;;6.33;4.53;;;5.10;78.20;;;;;;5061258;27;20480;-73
2022/04/18 01:58:35;;;;;;;8.23;4.33;;;5.10;78.20;;;;;;5041708;28;20492;-74
2022/04/18 02:01:02;;;;;;;5.77;3.83;;;5.00;77.90;;;;;;5064684;28;20473;-73
2022/04/18 02:03:29;;;;;;;4.63;3.70;;;5.00;78.20;;;;;;5078094;28;20483;-73
2022/04/18 02:05:57;;;;;;;6.30;5.03;;;4.90;78.90;;;;;;5063609;28;20467;-73
2022/04/18 02:08:26;;;;;;;5.00;4.50;;;4.80;79.50;;;;;;5061328;28;20512;-73
2022/04/18 02:10:54;;;;;;;5.67;4.20;;;4.80;79.40;;;;;;5076501;28;20530;-74
2022/04/18 02:13:21;;;;;;;5.67;5.03;;;4.80;80.50;;;;;;5068150;28;20473;-72
2022/04/18 02:15:48;;;;;;;5.00;4.50;;;4.80;80.20;;;;;;5060035;28;20481;-73
2022/04/18 02:18:15;;;;;;;5.70;4.40;;;4.70;80.20;;;;;;5061288;28;21130;-74
2022/04/18 02:20:41;;;;;;;6.10;5.00;;;4.80;80.30;;;;;;5065093;28;20484;-74
2022/04/18 02:23:09;;;;;;;4.70;4.00;;;4.80;80.20;;;;;;5063413;28;21038;-74
2022/04/18 02:25:36;;;;;;;4.43;4.03;;;4.80;80.20;;;;;;5076337;28;20870;-74
2022/04/18 02:28:05;;;;;;;4.30;3.90;;;4.80;79.90;;;;;;5064921;28;20484;-74
2022/04/18 02:30:31;;;;;;;4.20;3.90;;;4.90;79.80;;;;;;5061918;28;20875;-75
2022/04/18 02:32:58;;;;;;;5.37;4.17;;;4.80;78.70;;;;;;5067531;28;20550;-74
2022/04/18 02:35:27;;;;;;;7.07;4.57;;;4.70;78.20;;;;;;5080428;28;20476;-75
2022/04/18 02:37:54;;;;;;;4.80;4.30;;;4.70;78.00;;;;;;5067684;28;20524;-75
2022/04/18 02:40:22;;;;;;;5.57;4.33;;;4.70;77.60;;;;;;5054414;28;20513;-74
2022/04/18 02:42:50;;;;;;;4.83;4.17;;;4.70;77.80;;;;;;5058812;28;20501;-74
2022/04/18 02:45:19;;;;;;;6.77;4.90;;;4.70;77.70;;;;;;5062517;28;21280;-73
2022/04/18 02:47:46;;;;;;;8.43;4.47;;;4.60;78.10;;;;;;5069116;28;20508;-74
2022/04/18 02:50:14;;;;;;;7.00;3.73;;;4.60;78.80;;;;;;5062410;28;20490;-73
2022/04/18 02:52:41;;;;;;;5.23;4.73;;;4.60;79.10;;;;;;5068124;28;20476;-73
2022/04/18 02:55:11;;;;;;;6.27;4.97;;;4.60;79.50;;;;;;5067162;28;20498;-73
2022/04/18 02:57:38;;;;;;;7.00;4.37;;;4.60;79.70;;;;;;5060506;28;20584;-73
2022/04/18 03:00:07;;;;;;;4.87;4.47;;;4.60;79.60;;;;;;5060667;28;20494;-74
2022/04/18 03:02:35;;;;;;;4.83;4.33;;;4.60;79.60;;;;;;5071932;28;20909;-74
2022/04/18 03:05:02;;;;;;;4.50;4.10;;;4.70;79.60;;;;;;5068401;28;20960;-75
2022/04/18 03:07:29;;;;;;;5.00;4.10;;;4.70;79.40;;;;;;5068605;28;20564;-74
2022/04/18 03:09:55;;;;;;;5.40;4.80;;;4.80;79.10;;;;;;5068373;28;20476;-74
2022/04/18 03:12:23;;;;;;;5.50;4.33;;;4.80;78.80;;;;;;5071928;28;20485;-74
2022/04/18 03:14:50;;;;;;;8.30;4.43;;;4.80;78.80;;;;;;5066663;28;21002;-75
2022/04/18 03:17:16;;;;;;;5.30;4.10;;;4.80;78.90;;;;;;5062136;28;20985;-75
2022/04/18 03:19:45;;;;;;;5.50;4.40;;;4.80;79.00;;;;;;5048601;28;20515;-74
2022/04/18 03:22:12;;;;;;;10.47;4.93;;;4.90;78.70;;;;;;5082004;28;20481;-74
2022/04/18 03:24:40;;;;;;;4.60;4.10;;;4.90;78.60;;;;;;5061121;28;20476;-74
2022/04/18 03:27:07;;;;;;;4.47;4.07;;;4.90;78.30;;;;;;5076015;28;20486;-74
2022/04/18 03:29:35;;;;;;;4.90;4.33;;;4.80;78.60;;;;;;5059812;28;20479;-74
2022/04/18 03:32:04;;;;;;;9.40;4.10;;;4.90;78.90;;;;;;5058607;28;20577;-74
2022/04/18 03:34:31;;;;;;;6.00;4.40;;;4.90;78.40;;;;;;5064165;28;21002;-75
2022/04/18 03:39:52;;;;;;;3.97;3.53;;;4.80;79.00;;;;;;5062030;28;21644;-74
2022/04/18 03:42:28;;;;;;;4.30;3.90;;;4.80;78.90;;;;;;5071196;28;20502;-75
2022/04/18 03:44:56;;;;;;;9.20;4.40;;;4.70;78.60;;;;;;5066004;28;20480;-75
2022/04/18 03:47:24;;;;;;;5.67;4.67;;;4.70;78.80;;;;;;5066615;28;20496;-74
2022/04/18 03:49:51;;;;;;;7.13;3.87;;;4.60;79.20;;;;;;5062557;28;20599;-75
2022/04/18 03:52:19;;;;;;;5.63;4.37;;;4.60;79.10;;;;;;5082873;28;20475;-74
2022/04/18 03:54:47;;;;;;;4.87;4.40;;;4.60;79.00;;;;;;5078981;28;20493;-74
2022/04/18 03:57:14;;;;;;;5.57;4.70;;;4.50;79.00;;;;;;5075336;28;20585;-75
2022/04/18 03:59:42;;;;;;;5.60;3.80;;;4.50;79.10;;;;;;5066537;28;20564;-74
2022/04/18 04:02:09;;;;;;;5.37;4.10;;;4.50;79.00;;;;;;5062617;28;20472;-74
2022/04/18 04:04:36;;;;;;;5.70;3.83;;;4.60;79.10;;;;;;5047340;28;20485;-73
2022/04/18 04:07:04;;;;;;;4.60;4.17;;;4.60;79.10;;;;;;5071210;28;20564;-74
2022/04/18 04:09:33;;;;;;;8.90;3.97;;;4.60;78.70;;;;;;5074290;28;21129;-74
2022/04/18 04:12:00;;;;;;;4.37;3.67;;;4.50;78.70;;;;;;5068196;28;20944;-75
2022/04/18 04:14:27;;;;;;;6.23;4.70;;;4.50;78.90;;;;;;5070377;28;20484;-76
2022/04/18 04:16:54;;;;;;;5.73;4.00;;;4.50;79.10;;;;;;5066290;28;20495;-74
2022/04/18 04:19:20;;;;;;;9.23;4.20;;;4.50;79.00;;;;;;5066820;28;20489;-76
2022/04/18 04:21:48;;;;;;;8.43;5.40;;;4.40;79.00;;;;;;5068556;28;20492;-75
2022/04/18 04:24:15;;;;;;;6.77;4.93;;;4.40;79.10;;;;;;5065564;28;20484;-75
2022/04/18 04:26:44;;;;;;;5.27;3.93;;;4.30;79.20;;;;;;5067204;28;20488;-75
2022/04/18 04:29:11;;;;;;;7.17;4.00;;;4.40;79.30;;;;;;5065699;28;20506;-75
2022/04/18 04:31:37;;;;;;;4.83;4.23;;;4.30;79.40;;;;;;5055409;28;20894;-75
2022/04/18 04:34:05;;;;;;;5.77;4.43;;;4.30;79.50;;;;;;5066117;28;20504;-76
2022/04/18 04:36:32;;;;;;;6.07;4.37;;;4.30;79.20;;;;;;5039101;28;20489;-75
2022/04/18 04:38:59;;;;;;;4.40;3.90;;;4.30;79.40;;;;;;5062915;28;20539;-76
2022/04/18 04:41:25;;;;;;;4.60;3.80;;;4.30;79.70;;;;;;5063542;28;21018;-76
2022/04/18 04:43:53;;;;;;;5.37;3.87;;;4.30;79.60;;;;;;5056384;28;20516;-75
2022/04/18 04:46:20;;;;;;;4.67;4.13;;;4.30;79.70;;;;;;5054598;28;20486;-76
2022/04/18 04:48:47;;;;;;;5.67;4.47;;;4.30;79.60;;;;;;5019608;28;21019;-75
2022/04/18 04:51:13;;;;;;;5.67;5.03;;;4.30;79.90;;;;;;5054435;28;20503;-76
2022/04/18 04:53:40;;;;;;;5.70;4.10;;;4.30;80.00;;;;;;5036617;28;20474;-76
2022/04/18 04:56:07;;;;;;;4.90;3.80;;;4.30;79.90;;;;;;5039878;28;20483;-76
2022/04/18 04:58:34;;;;;;;4.70;4.30;;;4.30;79.20;;;;;;5063615;28;21267;-76
2022/04/18 05:01:02;;;;;;;5.87;5.37;;;4.40;79.20;;;;;;5054502;28;20491;-76
2022/04/18 05:03:29;;;;;;;5.50;4.20;;;4.40;79.60;;;;;;5064618;28;20489;-75
2022/04/18 05:05:55;;;;;;;5.37;4.13;;;4.40;79.30;;;;;;5051647;28;20479;-75
2022/04/18 05:08:22;;;;;;;10.00;6.50;;;4.30;79.30;;;;;;5051619;28;20899;-76
2022/04/18 05:10:50;;;;;;;7.13;5.10;;;4.40;79.60;;;;;;5060658;28;20479;-76
2022/04/18 05:13:16;;;;;;;4.20;3.90;;;4.30;79.90;;;;;;5073459;28;20489;-76
2022/04/18 05:15:43;;;;;;;6.20;4.30;;;4.30;79.60;;;;;;5063577;28;21996;-77
2022/04/18 05:18:11;;;;;;;5.73;5.13;;;4.30;79.30;;;;;;5058377;28;20545;-76
2022/04/18 05:20:38;;;;;;;4.70;3.83;;;4.40;79.40;;;;;;5075327;28;20672;-75
2022/04/18 05:23:05;;;;;;;5.17;4.67;;;4.40;79.10;;;;;;5067807;28;20484;-75
2022/04/18 05:25:33;;;;;;;4.30;3.90;;;4.30;78.90;;;;;;5075567;28;20494;-76
2022/04/18 05:27:59;;;;;;;6.90;4.07;;;4.50;79.00;;;;;;5054875;28;20488;-75
2022/04/18 05:30:27;;;;;;;4.93;4.50;;;4.40;79.50;;;;;;5060745;28;20484;-74
2022/04/18 05:32:54;;;;;;;6.10;4.53;;;4.30;80.10;;;;;;5062878;28;20476;-76
2022/04/18 05:35:23;;;;;;;5.07;4.57;;;4.30;80.60;;;;;;5072151;28;20487;-74
2022/04/18 05:37:49;;;;;;;4.83;4.17;;;4.30;80.90;;;;;;5064176;28;20481;-75
2022/04/18 05:40:16;;;;;;;6.70;4.70;;;4.40;81.00;;;;;;5037865;28;21030;-75
2022/04/18 05:42:43;;;;;;;8.00;4.87;;;4.50;81.30;;;;;;5065544;28;20501;-75
2022/04/18 05:45:10;;;;;;;5.93;5.37;;;4.60;81.60;;;;;;5068195;28;20496;-75
2022/04/18 05:47:37;;;;;;;9.63;4.80;;;4.70;81.70;;;;;;5074710;28;20490;-75
2022/04/18 05:50:05;;;;;;;4.63;3.97;;;4.80;81.60;;;;;;5068791;28;20480;-75
2022/04/18 05:52:33;;;;;;;4.83;4.43;;;4.90;81.50;;;;;;5062099;28;20490;-76
2022/04/18 05:55:01;;;;;;;5.30;4.80;;;5.00;82.40;;;;;;5059901;28;20472;-75
2022/04/18 05:57:28;;;;;;;7.70;4.97;;;5.20;81.90;;;;;;5067129;28;20476;-76
2022/04/18 05:59:55;;;;;;;7.63;5.77;;;5.40;81.70;;;;;;5071323;28;20482;-76
2022/04/18 06:02:22;;;;;;;8.97;4.33;;;5.60;81.50;;;;;;5063177;28;20480;-75
2022/04/18 06:04:48;;;;;;;4.40;4.00;;;5.90;81.10;;;;;;5075784;28;20995;-75
2022/04/18 06:07:15;;;;;;;7.03;4.53;;;6.20;80.70;;;;;;5058914;28;20488;-75
2022/04/18 06:09:43;;;;;;;5.17;4.23;;;6.50;80.20;;;;;;5070310;28;20492;-75
2022/04/18 06:12:10;;;;;;;4.23;3.83;;;6.90;81.20;;;;;;5064754;27;21059;-76
2022/04/18 06:14:36;;;;;;;5.27;4.67;;;7.30;81.60;;;;;;5076479;28;20463;-76
2022/04/18 06:17:05;;;;;;;4.90;4.43;;;7.80;79.70;;;;;;5060516;28;20481;-77
2022/04/18 06:19:32;;;;;;;6.30;5.30;;;8.20;79.10;;;;;;5067473;28;20484;-76
2022/04/18 06:21:58;;;;;;;9.17;6.17;;;8.80;79.00;;;;;;5063972;28;20994;-77
2022/04/18 06:24:25;;;;;;;6.87;6.17;;;9.50;77.80;;;;;;5050791;28;20474;-75
2022/04/18 06:26:54;;;;;;;4.73;4.20;;;10.00;75.10;;;;;;5068195;28;20871;-77
2022/04/18 06:29:22;;;;;;;4.37;3.80;;;10.50;74.20;;;;;;5024882;28;20504;-76
2022/04/18 06:31:49;;;;;;;5.97;4.73;;;10.90;73.40;;;;;;5081563;28;20503;-76
2022/04/18 06:34:16;;;;;;;5.40;4.07;;;11.50;73.70;;;;;;5058639;28;20483;-77
2022/04/18 06:36:43;;;;;;;4.03;3.63;;;12.00;72.60;;;;;;5065866;28;20485;-77
2022/04/18 06:39:10;;;;;;;5.03;4.40;;;12.50;70.90;;;;;;5059798;28;20492;-78
2022/04/18 06:41:36;;;;;;;6.07;4.43;;;13.00;71.20;;;;;;5064768;28;21009;-77
2022/04/18 06:44:07;;;;;;;5.70;4.67;;;13.50;70.10;;;;;;5058103;28;20476;-78
2022/04/18 06:46:34;;;;;;;7.00;4.27;;;14.20;69.30;;;;;;5067375;28;20476;-78
2022/04/18 06:49:00;;;;;;;4.60;4.17;;;14.90;66.30;;;;;;5059899;28;20486;-76
2022/04/18 06:51:28;;;;;;;4.33;3.93;;;15.60;64.70;;;;;;5064222;28;20526;-79
2022/04/18 06:53:55;;;;;;;5.10;4.10;;;16.10;63.90;;;;;;5075175;28;21068;-76
2022/04/18 06:59:07;;;;;;;6.13;4.70;;;16.70;62.30;;;;;;5058501;28;20482;-79
2022/04/18 07:01:35;;;;;;;4.17;3.77;;;16.80;61.00;;;;;;5053417;28;20523;-78
2022/04/18 07:04:03;;;;;;;4.90;4.43;;;17.00;62.20;;;;;;5060934;28;20478;-79
2022/04/18 07:06:29;;;;;;;7.20;4.20;;;17.10;60.20;;;;;;5070405;28;20716;-80
2022/04/18 07:08:56;;;;;;;8.80;4.20;;;17.30;60.70;;;;;;5063109;28;20482;-79
2022/04/18 07:11:23;;;;;;;4.73;4.33;;;17.30;58.80;;;;;;5070726;28;20500;-77
2022/04/18 07:13:51;;;;;;;6.80;4.80;;;17.40;60.20;;;;;;5057814;28;20855;-79
2022/04/18 07:16:19;;;;;;;7.33;4.90;;;17.30;61.70;;;;;;5081029;28;20563;-77
2022/04/18 07:18:46;;;;;;;7.80;4.07;;;17.30;59.70;;;;;;5075524;28;20489;-77
2022/04/18 07:21:14;;;;;;;5.10;4.60;;;17.20;59.60;;;;;;5070744;28;21390;-79
2022/04/18 07:23:41;;;;;;;6.60;4.70;;;17.20;61.30;;;;;;5074274;28;20914;-79
2022/04/18 07:26:07;;;;;;;5.33;4.53;;;17.10;59.00;;;;;;5070476;28;20481;-77
2022/04/18 07:28:38;;;;;;;8.23;4.47;;;17.00;58.60;;;;;;5069288;28;20484;-79
2022/04/18 07:31:07;;;;;;;4.90;4.50;;;16.90;58.40;;;;;;5067870;28;20463;-81
2022/04/18 07:33:35;;;;;;;5.60;5.10;;;16.90;58.00;;;;;;5064871;28;20481;-77
2022/04/18 07:36:03;;;;;;;8.17;5.17;;;17.00;59.40;;;;;;5072472;28;20477;-80
2022/04/18 07:41:15;;;;;;;5.30;4.80;;;17.00;59.50;;;;;;5054272;28;20907;-76
2022/04/18 07:43:42;;;;;;;5.53;4.63;;;17.10;59.40;;;;;;5067742;28;20484;-81
2022/04/18 07:46:09;;;;;;;6.23;4.77;;;17.10;59.00;;;;;;5074907;28;20957;-77
2022/04/18 07:48:37;;;;;;;5.73;5.10;;;17.10;58.40;;;;;;5068500;28;20596;-75
2022/04/18 07:53:49;;;;;;;4.20;3.80;;;17.20;59.00;;;;;;5065436;28;20585;-73
2022/04/18 07:56:16;;;;;;;5.27;4.77;;;17.10;57.10;;;;;;5061864;28;20524;-76
2022/04/18 07:58:44;;;;;;;8.97;4.80;;;17.10;56.80;;;;;;5070607;28;20477;-76
2022/04/18 08:01:10;;;;;;;6.03;4.60;;;17.10;57.60;;;;;;5057834;28;20478;-76
2022/04/18 08:03:39;;;;;;;8.00;4.23;;;17.00;57.80;;;;;;5072114;28;20493;-77
2022/04/18 08:06:05;;;;;;;8.50;4.23;;;17.10;58.00;;;;;;5066011;28;20501;-77
2022/04/18 08:08:33;;;;;;;6.70;4.40;;;17.20;58.20;;;;;;5066405;28;20482;-73
2022/04/18 08:11:00;;;;;;;4.33;3.70;;;17.20;57.50;;;;;;5070215;28;20588;-76
2022/04/18 08:13:27;;;;;;;4.40;4.00;;;17.40;57.80;;;;;;5065808;28;20616;-81
2022/04/18 08:15:54;;;;;;;7.13;4.07;;;17.50;58.20;;;;;;5070283;28;20855;-76
2022/04/18 08:18:21;;;;;;;4.63;4.07;;;17.80;58.50;;;;;;5069998;28;20688;-75
2022/04/18 08:20:49;;;;;;;5.40;3.70;;;18.00;58.00;;;;;;5063867;28;20951;-75
2022/04/18 08:23:16;;;;;;;4.70;4.20;;;18.30;59.30;;;;;;5074953;28;20978;-76
2022/04/18 08:25:42;;;;;;;4.60;3.93;;;18.30;57.20;;;;;;5068772;28;20870;-76
2022/04/18 08:28:09;;;;;;;6.57;4.23;;;18.50;56.40;;;;;;5063810;28;20479;-78
2022/04/18 08:30:36;;;;;;;5.70;3.83;;;18.60;55.80;;;;;;5061344;28;20478;-78
2022/04/18 08:33:03;;;;;;;4.83;4.40;;;18.90;56.50;;;;;;5064922;28;20512;-79
2022/04/18 08:35:32;;;;;;;5.30;4.50;;;18.90;55.40;;;;;;5065722;28;20487;-74
2022/04/18 08:38:00;;;;;;;3.90;2.87;;;19.00;55.60;;;;;;5063061;28;20493;-76
2022/04/18 08:40:28;;;;;;;7.23;3.80;;;18.90;52.20;;;;;;5077709;28;20482;-75
2022/04/18 08:42:56;;;;;;;3.77;3.10;;;19.00;51.50;;;;;;5068574;28;20485;-75
2022/04/18 08:45:24;;;;;;;5.13;3.80;;;19.10;55.20;;;;;;5075497;28;20865;-76
2022/04/18 08:53:26;;;;;;;5.20;3.53;;;19.40;52.50;;;;;;5071826;28;20540;-76
2022/04/18 08:55:52;;;;;;;5.57;3.40;;;19.40;50.40;;;;;;5070817;28;20496;-75
2022/04/18 08:58:19;;;;;;;4.50;4.00;;;19.50;52.30;;;;;;5067600;28;20474;-72
2022/04/18 09:00:46;;;;;;;4.67;3.50;;;19.50;51.70;;;;;;5067919;28;20866;-74
2022/04/18 09:03:20;;;;;;;9.90;3.50;;;19.50;51.60;;;;;;5072480;28;20482;-76
2022/04/18 09:05:47;;;;;;;3.17;2.87;;;19.60;55.30;;;;;;5070660;28;21149;-77
2022/04/18 09:08:15;;;;;;;6.80;3.60;;;19.10;51.20;;;;;;5067889;28;20495;-78
2022/04/18 09:10:43;;;;;;;3.83;3.33;;;19.10;52.30;;;;;;5074778;28;20513;-78
2022/04/18 09:13:12;;;;;;;4.60;3.57;;;18.70;50.30;;;;;;5079137;28;20867;-75
2022/04/18 09:15:41;;;;;;;4.20;2.97;;;18.80;51.90;;;;;;5058258;28;20487;-72
2022/04/18 09:18:10;;;;;;;2.60;1.80;;;18.70;51.70;;;;;;5069753;28;21020;-76
2022/04/18 09:20:45;;;;;;;9.80;7.03;;;18.50;50.50;;;;;;5070312;27;20565;-79
2022/04/18 09:23:26;;;;;;;4.93;3.73;;;18.70;51.80;;;;;;5067442;28;20483;-76
2022/04/18 09:25:57;;;;;;;5.53;3.60;;;19.00;54.70;;;;;;5067491;28;20482;-80
2022/04/18 09:28:26;;;;;;;3.83;3.37;;;19.20;52.20;;;;;;5068304;28;20474;-76
2022/04/18 09:31:01;;;;;;;6.57;3.63;;;19.50;51.90;;;;;;5066906;28;20588;-77
2022/04/18 09:33:33;;;;;;;4.17;3.23;;;19.60;54.80;;;;;;5068889;28;20492;-79
2022/04/18 09:36:11;;;;;;;5.53;3.97;;;19.50;49.20;;;;;;5080926;28;20598;-77
2022/04/18 09:38:43;;;;;;;3.67;3.33;;;19.60;51.60;;;;;;5055513;28;20559;-81
2022/04/18 09:41:15;;;;;;;5.40;4.73;;;19.60;49.90;;;;;;5080242;28;20505;-78
2022/04/18 09:43:44;;;;;;;7.17;3.67;;;19.60;50.50;;;;;;5067198;28;20489;-84
2022/04/18 09:46:12;;;;;;;3.43;1.97;;;19.80;54.50;;;;;;5065188;28;20715;-80
2022/04/18 09:48:40;;;;;;;4.17;2.97;;;19.50;48.60;;;;;;5065703;28;20808;-81
2022/04/18 09:51:08;;;;;;;3.37;3.00;;;19.80;51.70;;;;;;5066379;28;20942;-80
2022/04/18 09:53:37;;;;;;;10.97;3.83;;;19.90;50.10;;;;;;5061035;28;20540;-81
2022/04/18 09:56:04;;;;;;;4.50;4.10;;;19.90;51.80;;;;;;5074175;28;20500;-79
2022/04/18 09:58:34;;;;;;;4.93;3.60;;;20.00;49.80;;;;;;5073585;28;20500;-76
2022/04/18 10:01:03;;;;;;;3.90;3.50;;;19.90;49.10;;;;;;5072193;28;20504;-74
2022/04/18 10:03:32;;;;;;;3.97;3.20;;;19.90;50.00;;;;;;5070478;28;20494;-81
2022/04/18 10:06:01;;;;;;;3.10;2.73;;;19.90;50.30;;;;;;5072747;28;20967;-77
2022/04/18 10:08:29;;;;;;;3.63;3.33;;;19.70;47.30;;;;;;5060121;28;20570;-80
2022/04/18 10:10:58;;;;;;;3.27;3.07;;;19.60;50.90;;;;;;5060142;28;20479;-77
2022/04/18 10:13:25;;;;;;;5.37;3.97;;;19.80;53.20;;;;;;5071018;28;20544;-78
2022/04/18 10:15:55;;;;;;;5.27;3.70;;;19.60;49.40;;;;;;5069333;28;20486;-78
2022/04/18 10:18:23;;;;;;;5.80;3.53;;;19.80;52.90;;;;;;5070047;28;20466;-75
2022/04/18 10:21:18;;;;;;;5.10;3.10;;;19.90;52.50;;;;;;5052595;28;20597;-77
2022/04/18 10:24:33;;;;;;;2.97;2.67;;;20.20;53.30;;;;;;5058973;28;20473;-78
2022/04/18 10:27:38;;;;;;;3.40;2.83;;;20.30;49.30;;;;;;5056344;28;20497;-77
2022/04/18 10:30:07;;;;;;;4.73;3.50;;;20.20;47.80;;;;;;5061610;28;20486;-76
2022/04/18 10:32:38;;;;;;;5.83;2.93;;;19.50;46.10;;;;;;5071280;28;21072;-77
2022/04/18 10:35:06;;;;;;;3.67;3.30;;;19.30;46.80;;;;;;5069957;28;20477;-75
2022/04/18 10:37:33;;;;;;;5.57;3.10;;;19.60;50.40;;;;;;5064397;28;20494;-76
2022/04/18 10:40:02;;;;;;;3.10;2.43;;;19.60;50.80;;;;;;5070509;28;20479;-78
2022/04/18 10:42:31;;;;;;;3.93;2.80;;;19.90;51.60;;;;;;5050414;28;20493;-73
2022/04/18 10:45:19;;;;;;;2.77;2.53;;;20.20;52.10;;;;;;5056674;28;20480;-72
2022/04/18 10:48:06;;;;;;;2.90;2.27;;;20.50;50.70;;;;;;5069836;28;20482;-76
2022/04/18 10:50:41;;;;;;;4.30;2.60;;;20.40;48.50;;;;;;5064572;28;20842;-73
2022/04/18 10:53:35;;;;;;;2.83;2.50;;;20.40;51.20;;;;;;5062973;28;20898;-73
2022/04/18 10:56:14;;;;;;;4.27;2.47;;;20.50;51.50;;;;;;5053450;28;20520;-79
2022/04/18 10:58:49;;;;;;;2.83;2.47;;;20.50;51.80;;;;;;5062119;28;20485;-81
2022/04/18 11:01:19;;;;;;;4.13;2.50;;;20.70;51.30;;;;;;5073119;28;21371;-79
2022/04/18 11:03:51;;;;;;;3.20;2.80;;;20.60;51.70;;;;;;5073599;28;20483;-77
2022/04/18 11:06:43;;;;;;;3.43;2.87;;;20.60;47.10;;;;;;5066611;28;20493;-77
2022/04/18 11:09:13;;;;;;;3.20;2.33;;;20.60;49.50;;;;;;5062048;28;20486;-77
2022/04/18 11:11:44;;;;;;;4.53;2.63;;;19.90;46.50;;;;;;5055498;28;20491;-79
2022/04/18 11:14:19;;;;;;;2.97;2.30;;;19.80;47.90;;;;;;5071857;28;20478;-81
2022/04/18 11:16:55;;;;;;;3.03;2.33;;;20.00;49.20;;;;;;5081032;28;20478;-76
2022/04/18 11:19:27;;;;;;;2.80;2.20;;;19.80;49.90;;;;;;5074413;28;20481;-76
2022/04/18 11:22:10;;;;;;;5.43;2.43;;;19.90;48.90;;;;;;5066584;28;20481;-78
2022/04/18 11:24:40;;;;;;;4.10;3.00;;;20.00;48.20;;;;;;5074700;28;20469;-79
2022/04/18 11:27:09;;;;;;;3.60;2.70;;;20.20;50.30;;;;;;5066608;28;20486;-80
2022/04/18 11:29:36;;;;;;;5.37;2.47;;;20.30;50.10;;;;;;5061112;28;20483;-79
2022/04/18 11:32:03;;;;;;;2.90;2.60;;;20.60;50.90;;;;;;5074505;28;20489;-80
2022/04/18 11:34:32;;;;;;;6.13;2.57;;;21.00;51.70;;;;;;5069314;28;20477;-77
2022/04/18 11:37:01;;;;;;;2.97;2.50;;;21.20;50.80;;;;;;5066346;28;20476;-82
2022/04/18 11:39:44;;;;;;;3.07;2.77;;;21.30;52.30;;;;;;5069572;28;20486;-81
2022/04/18 11:42:16;;;;;;;2.43;1.83;;;21.50;52.30;;;;;;5079309;28;20476;-81
2022/04/18 11:44:44;;;;;;;4.50;2.60;;;21.30;47.60;;;;;;5078792;28;20512;-79
2022/04/18 11:47:13;;;;;;;2.67;2.47;;;20.80;46.70;;;;;;5075385;28;20482;-80
2022/04/18 11:49:45;;;;;;;3.60;2.70;;;20.80;50.10;;;;;;5074061;28;20485;-83
2022/04/18 11:52:19;;;;;;;3.50;2.50;;;20.80;50.10;;;;;;5064584;28;20569;-75
2022/04/18 11:55:04;;;;;;;6.20;2.20;;;21.00;51.00;;;;;;5081300;28;20490;-79
2022/04/18 11:57:33;;;;;;;3.87;2.40;;;21.00;48.00;;;;;;5050914;28;20832;-80
2022/04/18 12:00:00;;;;;;;3.07;2.20;;;21.10;51.80;;;;;;5091188;28;20484;-76
2022/04/18 12:08:02;;;;;;;4.73;2.10;;;21.70;51.60;;;;;;5036795;28;20525;-74
2022/04/18 12:10:31;;;;;;;3.37;2.60;;;21.40;48.40;;;;;;5077826;28;20483;-80
2022/04/18 12:13:00;;;;;;;2.60;1.80;;;21.20;47.20;;;;;;5070591;28;20470;-77
2022/04/18 12:15:28;;;;;;;4.17;2.30;;;21.40;50.10;;;;;;5075136;28;20486;-78
2022/04/18 12:17:58;;;;;;;3.03;2.23;;;21.50;50.70;;;;;;5068146;28;20500;-81
2022/04/18 12:20:29;;;;;;;2.40;2.00;;;21.50;49.90;;;;;;5064125;28;21044;-78
2022/04/18 12:22:59;;;;;;;4.27;2.50;;;21.50;49.10;;;;;;5069678;28;20525;-77
2022/04/18 12:25:28;;;;;;;4.00;2.80;;;21.60;52.30;;;;;;5069792;28;20847;-80
2022/04/18 12:27:56;;;;;;;4.10;2.60;;;21.50;49.80;;;;;;5072399;28;20493;-74
2022/04/18 12:30:24;;;;;;;11.73;2.33;;;21.50;49.80;;;;;;5063458;28;20516;-79
2022/04/18 12:32:53;;;;;;;3.43;3.00;;;21.50;50.30;;;;;;5072333;28;20491;-80
2022/04/18 12:35:37;;;;;;;3.50;2.53;;;21.50;47.60;;;;;;5058937;28;20570;-82
2022/04/18 12:38:05;;;;;;;5.70;2.30;;;21.40;47.50;;;;;;5070514;28;20528;-77
2022/04/18 12:40:37;;;;;;;2.57;1.97;;;21.40;51.30;;;;;;5064490;28;20481;-75
2022/04/18 12:43:10;;;;;;;4.07;2.80;;;21.60;50.40;;;;;;5074804;28;20495;-78
2022/04/18 12:45:48;;;;;;;4.20;2.20;;;21.80;50.80;;;;;;5072249;28;20485;-77
2022/04/18 12:48:22;;;;;;;2.00;1.77;;;21.90;50.20;;;;;;5069837;28;20475;-84
2022/04/18 12:50:51;;;;;;;2.97;2.30;;;22.20;51.90;;;;;;5070415;28;21216;-78
2022/04/18 12:53:18;;;;;;;2.10;1.90;;;22.20;48.90;;;;;;5053295;28;22269;-78
2022/04/18 12:55:45;;;;;;;2.37;1.93;;;22.10;47.50;;;;;;5063143;27;20489;-73
2022/04/18 12:58:19;;;;;;;3.00;2.30;;;22.10;49.10;;;;;;5057059;28;21013;-77
2022/04/18 13:00:49;;;;;;;2.67;2.10;;;22.10;49.40;;;;;;5060136;28;20489;-77
2022/04/18 13:03:17;;;;;;;3.13;2.43;;;22.00;48.60;;;;;;5069342;28;20851;-78
2022/04/18 13:05:45;;;;;;;3.07;2.20;;;22.00;49.10;;;;;;5056411;28;20493;-79
2022/04/18 13:08:15;;;;;;;3.13;2.13;;;22.00;48.20;;;;;;5063593;28;20840;-80
2022/04/18 13:10:44;;;;;;;2.53;2.33;;;21.90;47.20;;;;;;5058979;28;21025;-77
2022/04/18 13:13:13;;;;;;;10.23;9.33;;;21.90;49.40;;;;;;5059255;28;20479;-79
2022/04/18 13:15:40;;;;;;;7.50;6.90;;;21.60;45.80;;;;;;5073498;28;20476;-77
2022/04/18 13:18:10;;;;;;;3.10;2.80;;;21.50;45.90;;;;;;5068835;28;20876;-83
2022/04/18 13:20:39;;;;;;;2.90;2.60;;;21.60;46.80;;;;;;5064791;28;20478;-77
2022/04/18 13:23:07;;;;;;;3.00;2.60;;;21.60;47.30;;;;;;5045410;28;20486;-80
2022/04/18 13:25:36;;;;;;;3.60;2.40;;;21.60;50.30;;;;;;5067835;28;21022;-80